Archival Weather

Chicago O'Hare International

Chicago, Illinois (KORD)

Report from: Thursday, May 11, 2023 11:51 AM CDT
Current time: Friday, February 23, 2024 2:52 PM CST

Current weather – Weather history – Daily summaries
Weather forecast

Temperature26.1°C (79.0°F)
Dew point4.4°C (39.9°F)
Winds 7 kts (3.6 m/s, 8.1 mph) South (180°)
Visibility10 mi. (16.1 km)
Clouds Scattered clouds 30,000 ft. (9,144 m)
Altimeter30.09 in.Hg (1019 mB)
Relative humidity25 %
Density altitude1,233 ft. (376 m)
Sea-level pressure101.9 kPa (1019 mB, 30.08 in.Hg)
Remarks Automated weather observing station with precipitation discriminator
Flight conditions Visual Meteorological Conditions
Raw dataKORD 111651Z 18007KT 10SM SCT300 26/04 A3009 RMK AO2 SLP185 T02610044
An error has occurred. This application may no longer respond until reloaded. Reload 🗙